createdAt,value
2023-03-16T00:00:13.797Z,97.40
2023-03-16T00:02:42.470Z,97.40
2023-03-16T00:05:13.888Z,97.40
2023-03-16T00:07:42.994Z,97.40
2023-03-16T00:10:13.679Z,97.40
2023-03-16T00:12:43.843Z,97.40
2023-03-16T00:15:12.817Z,97.40
2023-03-16T00:17:41.313Z,97.40
2023-03-16T00:20:13.429Z,97.40
2023-03-16T00:22:41.947Z,97.40
2023-03-16T00:25:11.321Z,97.40
2023-03-16T00:27:40.099Z,97.40
2023-03-16T00:30:10.383Z,97.40
2023-03-16T00:32:39.823Z,97.40
2023-03-16T00:35:09.655Z,97.40
2023-03-16T00:37:40.017Z,97.40
2023-03-16T00:40:13.680Z,97.40
2023-03-16T00:42:41.972Z,97.40
2023-03-16T00:45:11.977Z,97.40
2023-03-16T00:47:40.134Z,97.40
2023-03-16T00:50:09.450Z,97.40
2023-03-16T00:52:38.979Z,97.40
2023-03-16T00:55:08.478Z,97.40
2023-03-16T00:57:36.743Z,97.40
2023-03-16T01:00:14.837Z,97.40
2023-03-16T01:02:45.193Z,97.40
2023-03-16T01:05:14.081Z,97.40
2023-03-16T01:07:45.282Z,97.40
2023-03-16T01:10:14.759Z,97.40
2023-03-16T01:12:45.421Z,97.40
2023-03-16T01:15:13.681Z,97.40
2023-03-16T01:17:42.236Z,97.40
2023-03-16T01:20:14.945Z,97.40
2023-03-16T01:22:44.587Z,97.40
2023-03-16T01:25:14.640Z,97.40
2023-03-16T01:27:43.659Z,97.40
2023-03-16T01:30:13.786Z,97.40
2023-03-16T01:32:43.359Z,97.40
2023-03-16T01:35:14.547Z,97.40
2023-03-16T01:37:44.319Z,97.40
2023-03-16T01:40:18.801Z,97.40
2023-03-16T01:42:48.667Z,97.40
2023-03-16T01:46:18.231Z,97.40
2023-03-16T01:49:08.391Z,97.40
2023-03-16T01:51:43.985Z,97.40
2023-03-16T01:54:23.005Z,97.40
2023-03-16T01:56:58.091Z,97.40
2023-03-16T01:59:31.510Z,97.40
2023-03-16T02:02:00.278Z,97.40
2023-03-16T02:04:45.982Z,97.40
2023-03-16T02:07:19.578Z,97.40
2023-03-16T02:09:53.297Z,97.40
2023-03-16T02:12:22.749Z,97.40
2023-03-16T02:14:55.340Z,97.40
2023-03-16T02:17:27.701Z,97.40
2023-03-16T02:20:13.654Z,97.40
2023-03-16T02:22:47.891Z,97.40
2023-03-16T02:25:20.310Z,97.40
2023-03-16T02:27:59.514Z,97.40
2023-03-16T02:30:30.497Z,97.40
2023-03-16T02:33:05.147Z,97.40
2023-03-16T02:35:33.647Z,97.40
2023-03-16T02:38:03.289Z,97.40
2023-03-16T02:40:38.120Z,97.40
2023-03-16T02:43:16.797Z,97.40
2023-03-16T02:45:58.538Z,97.40
2023-03-16T02:48:33.249Z,97.40
2023-03-16T02:51:01.514Z,97.40
2023-03-16T02:53:29.713Z,97.40
2023-03-16T02:55:59.350Z,97.40
2023-03-16T02:58:27.645Z,97.40
2023-03-16T03:00:57.735Z,97.40
2023-03-16T03:03:26.249Z,97.40
2023-03-16T03:05:54.523Z,97.40
2023-03-16T03:08:23.560Z,97.40
2023-03-16T03:10:52.434Z,97.40
2023-03-16T03:13:20.657Z,97.40
2023-03-16T03:15:48.861Z,97.40
2023-03-16T03:18:18.488Z,97.40
2023-03-16T03:20:46.792Z,97.40
2023-03-16T03:23:16.294Z,97.40
2023-03-16T03:25:45.353Z,97.40
2023-03-16T03:28:15.250Z,97.40
2023-03-16T03:30:43.837Z,97.40
2023-03-16T03:33:12.952Z,97.40
2023-03-16T03:35:43.010Z,97.40
2023-03-16T03:38:11.668Z,97.40
2023-03-16T03:40:40.959Z,97.40
2023-03-16T03:43:09.165Z,97.40
2023-03-16T03:45:42.190Z,97.40
2023-03-16T03:48:10.844Z,97.40
2023-03-16T03:50:40.642Z,97.40
2023-03-16T03:53:36.236Z,97.40
2023-03-16T03:56:16.233Z,97.40
2023-03-16T03:58:44.474Z,97.40
2023-03-16T04:01:16.388Z,97.40
2023-03-16T04:03:45.993Z,97.40
2023-03-16T04:06:16.852Z,97.40
2023-03-16T04:08:46.412Z,97.40
2023-03-16T04:11:19.466Z,97.40
2023-03-16T04:13:47.895Z,97.40
2023-03-16T04:16:16.242Z,97.40
2023-03-16T04:18:46.197Z,97.40
2023-03-16T04:21:17.757Z,97.40
2023-03-16T04:23:54.246Z,97.40
2023-03-16T04:26:26.412Z,97.40
2023-03-16T04:28:55.285Z,97.40
2023-03-16T04:31:23.990Z,97.40
2023-03-16T04:33:54.490Z,97.40
2023-03-16T04:36:24.471Z,97.40
2023-03-16T04:38:55.655Z,97.40
2023-03-16T04:41:24.782Z,97.40
2023-03-16T04:43:59.885Z,97.40
2023-03-16T04:46:29.549Z,97.40
2023-03-16T04:48:59.945Z,97.40
2023-03-16T04:51:30.238Z,97.40
2023-03-16T04:54:08.140Z,97.40
2023-03-16T04:56:41.532Z,97.40
2023-03-16T04:59:17.863Z,97.40
2023-03-16T05:01:51.674Z,97.40
2023-03-16T05:04:21.911Z,97.40
2023-03-16T05:06:50.549Z,97.40
2023-03-16T05:09:24.217Z,97.40
2023-03-16T05:11:52.610Z,97.40
2023-03-16T05:14:20.896Z,97.40
2023-03-16T05:17:15.587Z,97.40
2023-03-16T05:19:46.152Z,97.40
2023-03-16T05:22:15.910Z,97.40
2023-03-16T05:25:03.878Z,97.40
2023-03-16T05:27:34.216Z,97.40
2023-03-16T05:30:03.860Z,97.40
2023-03-16T05:32:33.706Z,97.40
2023-03-16T05:35:03.170Z,97.40
2023-03-16T05:37:31.910Z,97.40
2023-03-16T05:40:01.587Z,97.40
2023-03-16T05:42:30.072Z,97.40
2023-03-16T05:45:02.550Z,97.40
2023-03-16T05:47:38.284Z,97.40
2023-03-16T05:50:11.432Z,97.40
2023-03-16T05:52:44.548Z,97.40
2023-03-16T05:55:20.843Z,97.40
2023-03-16T05:57:55.457Z,97.40
2023-03-16T06:00:27.604Z,97.40
2023-03-16T06:03:08.686Z,97.40
2023-03-16T06:05:39.403Z,97.40
2023-03-16T06:08:09.167Z,97.40
2023-03-16T06:10:40.218Z,97.40
2023-03-16T06:13:08.724Z,97.40
2023-03-16T06:15:38.013Z,97.40
2023-03-16T06:18:06.458Z,97.40
2023-03-16T06:20:35.491Z,97.40
2023-03-16T06:23:04.435Z,97.40
2023-03-16T06:25:33.260Z,97.40
2023-03-16T06:28:03.070Z,97.40
2023-03-16T06:30:31.391Z,97.40
2023-03-16T06:33:00.302Z,97.40
2023-03-16T06:35:28.646Z,97.40
2023-03-16T06:38:18.060Z,97.40
2023-03-16T06:40:56.383Z,97.40
2023-03-16T06:43:26.680Z,97.40
2023-03-16T06:45:55.535Z,97.40
2023-03-16T06:48:24.532Z,97.40
2023-03-16T06:50:53.079Z,97.40
2023-03-16T06:53:27.104Z,97.40
2023-03-16T06:55:57.112Z,97.40
2023-03-16T06:58:29.004Z,97.40
2023-03-16T07:00:57.290Z,97.40
2023-03-16T07:03:25.580Z,97.40
2023-03-16T07:05:59.766Z,97.40
2023-03-16T07:08:28.126Z,97.40
2023-03-16T07:10:57.763Z,97.40
2023-03-16T07:13:25.999Z,97.40
2023-03-16T07:15:55.579Z,97.40
2023-03-16T07:18:26.143Z,97.40
2023-03-16T07:20:55.547Z,97.40
2023-03-16T07:23:26.824Z,97.40
2023-03-16T07:26:00.744Z,97.40
2023-03-16T07:28:29.635Z,96.60
2023-03-16T07:31:04.191Z,97.20
2023-03-16T07:33:38.671Z,95.30
2023-03-16T07:36:10.801Z,94.40
2023-03-16T07:38:43.858Z,94.40
2023-03-16T07:41:14.029Z,94.60
2023-03-16T07:43:44.012Z,94.00
2023-03-16T07:46:13.841Z,94.00
2023-03-16T07:48:43.615Z,93.70
2023-03-16T07:51:14.691Z,92.80
2023-03-16T07:53:46.820Z,93.00
2023-03-16T07:56:33.722Z,91.90
2023-03-16T07:59:13.635Z,91.00
2023-03-16T08:01:46.280Z,90.70
2023-03-16T08:04:14.687Z,90.20
2023-03-16T08:06:43.350Z,90.20
2023-03-16T08:09:11.785Z,88.80
2023-03-16T08:11:42.859Z,86.40
2023-03-16T08:14:11.725Z,84.00
2023-03-16T08:16:59.454Z,81.70
2023-03-16T08:19:29.092Z,81.00
2023-03-16T08:22:02.086Z,78.90
2023-03-16T08:24:39.862Z,75.60
2023-03-16T08:27:12.011Z,75.60
2023-03-16T08:29:43.262Z,77.10
2023-03-16T08:32:18.278Z,74.30
2023-03-16T08:34:48.353Z,71.80
2023-03-16T08:37:17.350Z,70.40
2023-03-16T08:39:46.958Z,67.70
2023-03-16T08:42:17.619Z,64.80
2023-03-16T08:44:50.739Z,65.70
2023-03-16T08:47:20.269Z,61.80
2023-03-16T08:49:49.163Z,63.50
2023-03-16T08:52:18.193Z,61.00
2023-03-16T08:55:01.418Z,60.70
2023-03-16T08:57:30.031Z,60.30
2023-03-16T08:59:58.248Z,60.10
2023-03-16T09:02:27.983Z,61.60
2023-03-16T09:04:56.288Z,58.10
2023-03-16T09:07:24.841Z,56.70
2023-03-16T09:09:53.018Z,56.60
2023-03-16T09:12:22.208Z,55.40
2023-03-16T09:14:50.340Z,54.50
2023-03-16T09:17:18.618Z,56.40
2023-03-16T09:19:51.668Z,54.30
2023-03-16T09:22:20.534Z,54.90
2023-03-16T09:24:49.595Z,52.90
2023-03-16T09:27:18.622Z,53.50
2023-03-16T09:29:47.423Z,53.50
2023-03-16T09:32:16.219Z,50.50
2023-03-16T09:34:44.830Z,50.00
2023-03-16T09:37:14.655Z,50.20
2023-03-16T09:39:43.318Z,50.80
2023-03-16T09:42:19.247Z,52.00
2023-03-16T09:45:00.728Z,52.00
2023-03-16T09:47:32.805Z,52.30
2023-03-16T09:50:06.168Z,52.80
2023-03-16T09:52:45.700Z,56.00
2023-03-16T09:55:27.235Z,57.50
2023-03-16T09:57:56.194Z,59.90
2023-03-16T10:00:28.534Z,61.60
2023-03-16T10:03:10.419Z,62.20
2023-03-16T10:05:39.563Z,62.20
2023-03-16T10:08:18.499Z,62.70
2023-03-16T10:11:06.303Z,61.00
2023-03-16T10:13:43.804Z,59.80
2023-03-16T10:16:19.373Z,59.60
2023-03-16T10:18:52.186Z,57.40
2023-03-16T10:21:22.794Z,56.30
2023-03-16T10:23:54.051Z,58.00
2023-03-16T10:26:27.579Z,56.40
2023-03-16T10:28:55.721Z,57.70
2023-03-16T10:31:24.955Z,56.60
2023-03-16T10:33:59.427Z,56.90
2023-03-16T10:36:33.560Z,56.30
2023-03-16T10:39:06.968Z,54.90
2023-03-16T10:41:37.833Z,56.70
2023-03-16T10:44:13.755Z,57.20
2023-03-16T10:46:48.119Z,56.30
2023-03-16T10:49:25.745Z,57.40
2023-03-16T10:52:00.461Z,57.40
2023-03-16T10:54:35.862Z,59.00
2023-03-16T10:57:16.679Z,57.70
2023-03-16T10:59:49.735Z,57.00
2023-03-16T11:02:22.653Z,58.30
2023-03-16T11:04:51.079Z,57.70
2023-03-16T11:07:24.075Z,55.70
2023-03-16T11:09:55.899Z,55.40
2023-03-16T11:12:28.764Z,55.50
2023-03-16T11:15:09.397Z,53.90
2023-03-16T11:17:47.024Z,53.70
2023-03-16T11:20:19.620Z,53.40
2023-03-16T11:22:49.479Z,52.30
2023-03-16T11:25:28.952Z,49.90
2023-03-16T11:28:13.039Z,49.90
2023-03-16T11:30:44.741Z,49.00
2023-03-16T11:33:15.761Z,46.70
2023-03-16T11:35:58.800Z,47.00
2023-03-16T11:38:36.107Z,48.10
2023-03-16T11:41:11.412Z,46.80
2023-03-16T11:43:54.751Z,46.20
2023-03-16T11:46:26.489Z,45.60
2023-03-16T11:49:50.512Z,44.60
2023-03-16T11:52:34.062Z,43.80
2023-03-16T11:55:17.798Z,42.70
2023-03-16T11:57:59.177Z,46.10
2023-03-16T12:00:37.322Z,47.20
2023-03-16T12:04:14.088Z,45.00
2023-03-16T12:07:03.226Z,42.40
2023-03-16T12:10:20.343Z,42.60
2023-03-16T12:13:30.868Z,41.70
2023-03-16T12:16:05.672Z,41.70
2023-03-16T12:18:44.618Z,40.30
2023-03-16T12:21:17.188Z,39.20
2023-03-16T12:23:53.476Z,40.30
2023-03-16T12:26:26.452Z,39.50
2023-03-16T12:28:57.025Z,39.40
2023-03-16T12:31:37.512Z,40.60
2023-03-16T12:34:20.598Z,40.10
2023-03-16T12:37:06.522Z,40.00
2023-03-16T12:40:10.623Z,39.20
2023-03-16T12:43:27.467Z,37.40
2023-03-16T12:46:06.076Z,37.90
2023-03-16T12:48:39.804Z,37.70
2023-03-16T12:51:08.213Z,36.20
2023-03-16T12:53:46.695Z,36.90
2023-03-16T12:56:17.916Z,35.40
2023-03-16T12:58:49.251Z,34.10
2023-03-16T13:01:21.816Z,33.60
2023-03-16T13:03:52.076Z,34.40
2023-03-16T13:06:24.859Z,38.20
2023-03-16T13:08:59.724Z,36.60
2023-03-16T13:11:28.995Z,38.00
2023-03-16T13:14:11.264Z,38.80
2023-03-16T13:16:41.350Z,40.30
2023-03-16T13:19:27.543Z,39.70
2023-03-16T13:22:18.535Z,39.40
2023-03-16T13:24:54.938Z,38.00
2023-03-16T13:27:28.320Z,35.10
2023-03-16T13:29:59.092Z,35.40
2023-03-16T13:32:34.980Z,38.50
2023-03-16T13:35:09.838Z,38.30
2023-03-16T13:37:39.739Z,39.80
2023-03-16T13:40:21.361Z,36.20
2023-03-16T13:42:53.296Z,36.20
2023-03-16T13:45:25.055Z,33.60
2023-03-16T13:47:54.950Z,36.60
2023-03-16T13:50:23.560Z,34.50
2023-03-16T13:53:00.571Z,33.70
2023-03-16T13:55:33.979Z,35.00
2023-03-16T13:58:02.790Z,35.70
2023-03-16T14:00:37.008Z,35.10
2023-03-16T14:03:17.714Z,33.90
2023-03-16T14:05:47.494Z,37.90
2023-03-16T14:08:21.151Z,38.20
2023-03-16T14:10:49.964Z,39.80
2023-03-16T14:13:33.411Z,41.20
2023-03-16T14:16:04.865Z,40.80
2023-03-16T14:18:38.606Z,40.90
2023-03-16T14:21:10.300Z,42.40
2023-03-16T14:23:42.386Z,44.90
2023-03-16T14:26:15.347Z,44.70
2023-03-16T14:28:57.326Z,44.70
2023-03-16T14:31:35.476Z,43.80
2023-03-16T14:34:08.867Z,45.00
2023-03-16T14:36:39.571Z,44.60
2023-03-16T14:39:17.027Z,45.60
2023-03-16T14:41:46.202Z,45.90
2023-03-16T14:44:22.877Z,46.20
2023-03-16T14:46:51.911Z,48.80
2023-03-16T14:49:29.101Z,48.70
2023-03-16T14:52:02.374Z,50.00
2023-03-16T14:54:31.238Z,49.70
2023-03-16T14:57:03.811Z,50.30
2023-03-16T14:59:32.223Z,51.10
2023-03-16T15:02:02.232Z,51.60
2023-03-16T15:04:35.643Z,52.50
2023-03-16T15:07:23.978Z,53.20
2023-03-16T15:09:55.068Z,53.50
2023-03-16T15:12:26.484Z,54.20
2023-03-16T15:15:12.361Z,55.10
2023-03-16T15:17:40.585Z,56.00
2023-03-16T15:20:13.100Z,55.40
2023-03-16T15:22:41.810Z,56.30
2023-03-16T15:25:27.211Z,58.10
2023-03-16T15:27:55.852Z,59.60
2023-03-16T15:30:26.751Z,61.00
2023-03-16T15:32:55.409Z,60.90
2023-03-16T15:35:24.971Z,61.20
2023-03-16T15:37:53.562Z,62.70
2023-03-16T15:40:25.197Z,62.50
2023-03-16T15:42:54.010Z,61.80
2023-03-16T15:45:24.090Z,62.70
2023-03-16T15:47:54.411Z,62.50
2023-03-16T15:50:25.670Z,62.50
2023-03-16T15:53:04.720Z,64.20
2023-03-16T15:55:37.753Z,64.80
2023-03-16T15:58:07.467Z,67.70
2023-03-16T16:00:38.326Z,69.60
2023-03-16T16:03:08.214Z,68.50
2023-03-16T16:05:37.784Z,67.70
2023-03-16T16:08:06.448Z,68.70
2023-03-16T16:10:36.145Z,70.40
2023-03-16T16:13:04.512Z,69.40
2023-03-16T16:15:37.472Z,70.50
2023-03-16T16:18:31.798Z,69.60
2023-03-16T16:21:03.468Z,70.00
2023-03-16T16:23:32.620Z,69.40
2023-03-16T16:26:04.817Z,69.80
2023-03-16T16:28:34.466Z,70.90
2023-03-16T16:31:03.378Z,71.80
2023-03-16T16:33:34.297Z,72.80
2023-03-16T16:36:07.318Z,73.50
2023-03-16T16:38:35.594Z,72.20
2023-03-16T16:41:09.066Z,73.90
2023-03-16T16:43:41.171Z,73.70
2023-03-16T16:46:16.494Z,75.00
2023-03-16T16:48:47.470Z,75.40
2023-03-16T16:51:19.745Z,75.80
2023-03-16T16:53:48.873Z,76.50
2023-03-16T16:56:23.005Z,75.80
2023-03-16T16:58:51.411Z,75.60
2023-03-16T17:01:27.371Z,76.50
2023-03-16T17:03:55.632Z,78.20
2023-03-16T17:06:25.547Z,78.20
2023-03-16T17:08:55.064Z,78.00
2023-03-16T17:11:26.243Z,78.90
2023-03-16T17:13:56.903Z,78.60
2023-03-16T17:16:27.803Z,79.50
2023-03-16T17:18:56.498Z,80.80
2023-03-16T17:21:31.016Z,81.00
2023-03-16T17:24:00.255Z,82.30
2023-03-16T17:26:32.822Z,82.10
2023-03-16T17:29:03.882Z,82.70
2023-03-16T17:31:36.607Z,83.60
2023-03-16T17:34:16.657Z,84.50
2023-03-16T17:36:46.823Z,84.50
2023-03-16T17:39:20.899Z,85.60
2023-03-16T17:41:50.259Z,85.60
2023-03-16T17:44:20.091Z,86.90
2023-03-16T17:46:49.338Z,88.20
2023-03-16T17:49:20.511Z,88.10
2023-03-16T17:51:50.074Z,88.40
2023-03-16T17:54:18.702Z,88.80
2023-03-16T17:56:48.811Z,88.80
2023-03-16T17:59:20.285Z,89.20
2023-03-16T18:01:48.899Z,89.90
2023-03-16T18:04:18.557Z,90.20
2023-03-16T18:06:48.112Z,90.10
2023-03-16T18:09:19.519Z,90.10
2023-03-16T18:11:50.402Z,90.50
2023-03-16T18:14:34.722Z,90.60
2023-03-16T18:17:03.534Z,90.50
2023-03-16T18:19:33.638Z,90.90
2023-03-16T18:22:01.853Z,90.80
2023-03-16T18:24:31.702Z,90.80
2023-03-16T18:27:00.137Z,90.90
2023-03-16T18:29:28.635Z,91.00
2023-03-16T18:31:59.247Z,91.00
2023-03-16T18:34:30.868Z,90.90
2023-03-16T18:37:00.729Z,91.10
2023-03-16T18:39:28.919Z,91.20
2023-03-16T18:41:58.751Z,91.50
2023-03-16T18:44:28.154Z,91.50
2023-03-16T18:47:03.329Z,92.20
2023-03-16T18:49:35.718Z,92.10
2023-03-16T18:52:05.315Z,92.30
2023-03-16T18:54:36.326Z,92.40
2023-03-16T18:57:16.381Z,93.00
2023-03-16T18:59:44.524Z,92.70
2023-03-16T19:02:29.375Z,92.80
2023-03-16T19:05:00.765Z,93.30
2023-03-16T19:07:35.020Z,93.70
2023-03-16T19:10:09.594Z,93.90
2023-03-16T19:12:39.217Z,94.00
2023-03-16T19:15:20.839Z,93.80
2023-03-16T19:17:49.647Z,93.70
2023-03-16T19:20:21.259Z,94.20
2023-03-16T19:22:51.931Z,94.20
2023-03-16T19:25:25.696Z,94.80
2023-03-16T19:27:55.716Z,94.70
2023-03-16T19:30:28.081Z,94.90
2023-03-16T19:32:57.728Z,94.70
2023-03-16T19:35:44.363Z,95.00
2023-03-16T19:38:17.101Z,94.90
2023-03-16T19:40:45.941Z,94.90
2023-03-16T19:43:19.866Z,95.10
2023-03-16T19:45:50.089Z,94.70
2023-03-16T19:48:22.570Z,95.10
2023-03-16T19:50:52.018Z,95.50
2023-03-16T19:53:23.084Z,95.60
2023-03-16T19:55:53.610Z,95.60
2023-03-16T19:58:31.406Z,96.00
2023-03-16T20:01:01.134Z,95.10
2023-03-16T20:03:29.759Z,95.10
2023-03-16T20:05:58.099Z,95.10
2023-03-16T20:08:28.632Z,95.40
2023-03-16T20:11:04.426Z,94.70
2023-03-16T20:13:35.426Z,95.50
2023-03-16T20:16:04.396Z,95.70
2023-03-16T20:18:32.927Z,94.80
2023-03-16T20:21:01.179Z,95.30
2023-03-16T20:23:31.223Z,95.50
2023-03-16T20:26:03.032Z,95.50
2023-03-16T20:28:36.755Z,95.20
2023-03-16T20:31:08.390Z,95.00
2023-03-16T20:33:36.753Z,95.10
2023-03-16T20:36:05.914Z,95.20
2023-03-16T20:38:34.099Z,95.40
2023-03-16T20:41:02.669Z,95.60
2023-03-16T20:43:33.814Z,95.50
2023-03-16T20:46:04.715Z,95.60
2023-03-16T20:48:34.130Z,95.90
2023-03-16T20:51:02.743Z,95.60
2023-03-16T20:53:31.230Z,96.00
2023-03-16T20:55:59.562Z,95.80
2023-03-16T20:58:29.171Z,95.80
2023-03-16T21:01:00.885Z,95.80
2023-03-16T21:03:33.361Z,95.70
2023-03-16T21:06:01.744Z,95.20
2023-03-16T21:08:29.932Z,95.50
2023-03-16T21:10:59.903Z,95.70
2023-03-16T21:13:33.278Z,95.80
2023-03-16T21:16:04.353Z,95.70
2023-03-16T21:18:32.970Z,95.80
2023-03-16T21:21:01.795Z,95.50
2023-03-16T21:23:30.076Z,95.70
2023-03-16T21:26:03.148Z,95.90
2023-03-16T21:28:35.248Z,96.00
2023-03-16T21:31:06.675Z,95.90
2023-03-16T21:33:37.707Z,95.60
2023-03-16T21:36:08.866Z,94.90
2023-03-16T21:38:37.124Z,94.80
2023-03-16T21:41:07.163Z,95.00
2023-03-16T21:43:35.553Z,94.80
2023-03-16T21:46:06.368Z,95.00
2023-03-16T21:48:38.816Z,94.70
2023-03-16T21:51:16.746Z,94.50
2023-03-16T21:53:44.994Z,94.40
2023-03-16T21:56:16.967Z,94.40
2023-03-16T21:58:46.341Z,94.40
2023-03-16T22:01:25.720Z,94.50
2023-03-16T22:03:58.323Z,94.70
2023-03-16T22:06:28.803Z,94.80
2023-03-16T22:08:57.714Z,95.00
2023-03-16T22:11:28.567Z,95.40
2023-03-16T22:13:58.926Z,95.50
2023-03-16T22:16:33.327Z,95.30
2023-03-16T22:19:01.925Z,95.70
2023-03-16T22:21:34.508Z,95.70
2023-03-16T22:24:05.291Z,95.70
2023-03-16T22:26:33.885Z,96.00
2023-03-16T22:29:03.275Z,96.00
2023-03-16T22:31:35.898Z,95.60
2023-03-16T22:34:05.671Z,95.40
2023-03-16T22:36:34.805Z,95.50
2023-03-16T22:39:08.122Z,95.50
2023-03-16T22:41:36.305Z,95.40
2023-03-16T22:44:05.063Z,95.30
2023-03-16T22:46:34.717Z,95.40
2023-03-16T22:49:02.889Z,95.50
2023-03-16T22:51:34.532Z,95.90
2023-03-16T22:54:06.540Z,95.90
2023-03-16T22:56:36.698Z,96.10
2023-03-16T22:59:08.114Z,96.90
2023-03-16T23:01:42.458Z,96.60
2023-03-16T23:04:16.325Z,96.70
2023-03-16T23:06:44.763Z,96.50
2023-03-16T23:09:15.419Z,96.60
2023-03-16T23:11:46.366Z,96.90
2023-03-16T23:14:17.456Z,96.80
2023-03-16T23:16:48.281Z,96.60
2023-03-16T23:19:25.650Z,96.60
2023-03-16T23:21:56.199Z,96.60
2023-03-16T23:24:24.424Z,96.70
2023-03-16T23:26:53.978Z,96.80
2023-03-16T23:29:23.594Z,96.80
2023-03-16T23:31:53.872Z,96.60
2023-03-16T23:34:24.535Z,96.90
2023-03-16T23:36:52.988Z,96.70
2023-03-16T23:39:21.403Z,97.00
2023-03-16T23:41:50.943Z,97.00
2023-03-16T23:44:22.604Z,97.00
2023-03-16T23:46:52.410Z,97.00
2023-03-16T23:49:23.415Z,97.40
2023-03-16T23:51:52.209Z,97.40
2023-03-16T23:54:24.040Z,97.40
2023-03-16T23:56:52.720Z,97.40
2023-03-16T23:59:23.295Z,97.40
